createdAt,value
2023-05-09T00:00:21.964Z,11.30
2023-05-09T00:02:50.103Z,10.15
2023-05-09T00:05:21.061Z,10.27
2023-05-09T00:07:49.280Z,13.87
2023-05-09T00:10:17.401Z,10.18
2023-05-09T00:12:45.589Z,12.23
2023-05-09T00:15:13.879Z,12.18
2023-05-09T00:17:42.347Z,10.38
2023-05-09T00:20:11.880Z,10.55
2023-05-09T00:22:41.679Z,13.05
2023-05-09T00:25:11.247Z,15.02
2023-05-09T00:27:39.452Z,15.23
2023-05-09T00:30:09.062Z,14.10
2023-05-09T00:32:37.350Z,15.00
2023-05-09T00:35:06.238Z,11.70
2023-05-09T00:37:34.405Z,13.27
2023-05-09T00:40:05.226Z,14.18
2023-05-09T00:42:33.498Z,13.63
2023-05-09T00:45:01.873Z,14.07
2023-05-09T00:47:30.866Z,11.98
2023-05-09T00:49:59.717Z,12.27
2023-05-09T00:52:28.238Z,12.55
2023-05-09T00:54:56.782Z,13.15
2023-05-09T00:57:26.181Z,13.18
2023-05-09T00:59:54.191Z,11.90
2023-05-09T01:02:22.619Z,13.20
2023-05-09T01:04:51.074Z,11.63
2023-05-09T01:07:24.020Z,13.98
2023-05-09T01:10:01.654Z,13.40
2023-05-09T01:12:40.714Z,12.60
2023-05-09T01:15:13.751Z,13.13
2023-05-09T01:17:54.854Z,14.23
2023-05-09T01:20:31.223Z,14.10
2023-05-09T01:23:13.054Z,16.13
2023-05-09T01:25:56.654Z,14.18
2023-05-09T01:28:38.776Z,14.38
2023-05-09T01:31:10.609Z,14.52
2023-05-09T01:33:43.633Z,14.27
2023-05-09T01:36:17.275Z,13.25
2023-05-09T01:38:49.252Z,17.52
2023-05-09T01:41:18.780Z,11.98
2023-05-09T01:43:48.627Z,15.68
2023-05-09T01:46:19.405Z,11.50
2023-05-09T01:48:49.056Z,13.38
2023-05-09T01:51:18.238Z,12.70
2023-05-09T01:53:49.248Z,13.20
2023-05-09T01:56:19.860Z,14.40
2023-05-09T01:58:50.055Z,13.63
2023-05-09T02:01:20.824Z,15.63
2023-05-09T02:03:53.646Z,15.05
2023-05-09T02:06:24.114Z,17.67
2023-05-09T02:08:52.714Z,12.07
2023-05-09T02:11:21.100Z,14.30
2023-05-09T02:13:50.612Z,15.23
2023-05-09T02:16:21.123Z,14.55
2023-05-09T02:18:49.285Z,16.45
2023-05-09T02:21:17.437Z,14.57
2023-05-09T02:23:46.129Z,14.40
2023-05-09T02:26:16.178Z,17.80
2023-05-09T02:28:46.006Z,15.77
2023-05-09T02:31:16.371Z,15.10
2023-05-09T02:33:47.832Z,16.17
2023-05-09T02:36:16.538Z,13.93
2023-05-09T02:38:45.697Z,13.15
2023-05-09T02:41:15.211Z,12.57
2023-05-09T02:43:43.412Z,14.65
2023-05-09T02:46:11.983Z,13.23
2023-05-09T02:48:40.050Z,15.55
2023-05-09T02:51:09.531Z,16.05
2023-05-09T02:53:37.676Z,14.95
2023-05-09T02:56:06.190Z,12.73
2023-05-09T02:58:34.248Z,16.30
2023-05-09T03:01:02.308Z,12.10
2023-05-09T03:03:33.888Z,12.23
2023-05-09T03:06:05.957Z,14.85
2023-05-09T03:08:35.464Z,13.95
2023-05-09T03:11:04.816Z,14.20
2023-05-09T03:13:33.318Z,12.60
2023-05-09T03:16:01.497Z,15.60
2023-05-09T03:18:30.266Z,14.30
2023-05-09T03:20:58.466Z,13.27
2023-05-09T03:23:27.248Z,14.07
2023-05-09T03:25:56.619Z,15.63
2023-05-09T03:28:24.903Z,12.23
2023-05-09T03:30:53.136Z,13.95
2023-05-09T03:33:24.643Z,13.85
2023-05-09T03:35:53.270Z,16.17
2023-05-09T03:38:24.166Z,15.93
2023-05-09T03:40:52.423Z,15.63
2023-05-09T03:43:21.895Z,13.40
2023-05-09T03:45:49.937Z,12.13
2023-05-09T03:48:18.824Z,14.23
2023-05-09T03:50:51.329Z,13.10
2023-05-09T03:53:20.819Z,13.98
2023-05-09T03:55:50.578Z,13.18
2023-05-09T03:58:20.831Z,13.15
2023-05-09T04:00:49.387Z,13.75
2023-05-09T04:03:22.570Z,14.98
2023-05-09T04:05:52.764Z,17.70
2023-05-09T04:08:30.821Z,15.18
2023-05-09T04:10:59.737Z,14.07
2023-05-09T04:13:29.996Z,13.02
2023-05-09T04:15:59.976Z,13.90
2023-05-09T04:18:31.254Z,14.65
2023-05-09T04:20:59.447Z,15.60
2023-05-09T04:23:27.655Z,16.10
2023-05-09T04:25:59.086Z,16.70
2023-05-09T04:28:29.159Z,13.20
2023-05-09T04:30:58.602Z,12.82
2023-05-09T04:33:26.780Z,12.60
2023-05-09T04:36:01.291Z,15.27
2023-05-09T04:38:29.648Z,13.02
2023-05-09T04:40:58.588Z,13.63
2023-05-09T04:43:28.050Z,12.35
2023-05-09T04:45:57.445Z,13.20
2023-05-09T04:48:26.142Z,12.82
2023-05-09T04:50:54.302Z,13.40
2023-05-09T04:53:22.544Z,14.32
2023-05-09T04:55:51.940Z,14.13
2023-05-09T04:58:20.829Z,15.45
2023-05-09T05:00:49.974Z,15.60
2023-05-09T05:03:20.460Z,19.58
2023-05-09T05:05:48.961Z,15.52
2023-05-09T05:08:17.555Z,14.88
2023-05-09T05:10:47.505Z,13.68
2023-05-09T05:13:17.301Z,14.40
2023-05-09T05:15:49.728Z,15.93
2023-05-09T05:18:18.282Z,16.33
2023-05-09T05:20:47.955Z,17.65
2023-05-09T05:23:16.246Z,13.93
2023-05-09T05:25:44.368Z,13.35
2023-05-09T05:28:14.924Z,14.88
2023-05-09T05:30:43.239Z,14.90
2023-05-09T05:33:12.583Z,18.33
2023-05-09T05:35:42.282Z,17.33
2023-05-09T05:38:11.830Z,16.65
2023-05-09T05:40:40.496Z,13.93
2023-05-09T05:43:09.401Z,16.57
2023-05-09T05:45:39.705Z,17.60
2023-05-09T05:48:11.011Z,14.40
2023-05-09T05:50:39.294Z,15.90
2023-05-09T05:53:07.596Z,17.67
2023-05-09T05:55:37.752Z,16.63
2023-05-09T05:58:07.090Z,20.98
2023-05-09T06:00:36.330Z,17.80
2023-05-09T06:03:07.339Z,16.02
2023-05-09T06:05:44.778Z,19.20
2023-05-09T06:08:13.897Z,15.38
2023-05-09T06:10:43.424Z,17.90
2023-05-09T06:13:12.504Z,16.37
2023-05-09T06:15:45.991Z,17.63
2023-05-09T06:18:14.264Z,17.35
2023-05-09T06:20:42.348Z,16.75
2023-05-09T06:23:10.439Z,16.25
2023-05-09T06:25:38.569Z,17.33
2023-05-09T06:28:09.457Z,16.03
2023-05-09T06:30:37.495Z,15.17
2023-05-09T06:33:06.075Z,17.10
2023-05-09T06:35:34.219Z,18.52
2023-05-09T06:38:02.344Z,16.00
2023-05-09T06:40:30.389Z,18.70
2023-05-09T06:42:58.422Z,19.17
2023-05-09T06:45:28.198Z,17.58
2023-05-09T06:47:56.258Z,18.58
2023-05-09T06:50:24.555Z,19.92
2023-05-09T06:52:52.583Z,16.63
2023-05-09T06:55:20.681Z,23.55
2023-05-09T06:57:48.869Z,21.30
2023-05-09T07:00:17.765Z,20.20
2023-05-09T07:02:47.241Z,19.33
2023-05-09T07:05:16.315Z,18.17
2023-05-09T07:07:44.614Z,17.67
2023-05-09T07:10:13.291Z,21.80
2023-05-09T07:12:41.892Z,18.90
2023-05-09T07:15:11.360Z,19.60
2023-05-09T07:17:39.661Z,17.77
2023-05-09T07:20:10.350Z,16.70
2023-05-09T07:22:38.703Z,17.23
2023-05-09T07:25:09.031Z,15.32
2023-05-09T07:27:37.114Z,15.77
2023-05-09T07:30:09.227Z,18.33
2023-05-09T07:32:37.390Z,16.00
2023-05-09T07:35:05.945Z,18.38
2023-05-09T07:37:35.826Z,15.85
2023-05-09T07:40:05.984Z,14.27
2023-05-09T07:42:34.270Z,18.35
2023-05-09T07:45:04.349Z,17.27
2023-05-09T07:47:32.502Z,23.50
2023-05-09T07:50:00.648Z,16.65
2023-05-09T07:52:28.867Z,12.80
2023-05-09T07:54:58.541Z,16.20
2023-05-09T07:57:26.639Z,16.20
2023-05-09T07:59:54.784Z,14.13
2023-05-09T08:02:22.956Z,14.60
2023-05-09T08:04:51.031Z,14.38
2023-05-09T08:07:19.063Z,13.80
2023-05-09T08:09:47.142Z,13.68
2023-05-09T08:12:16.571Z,13.25
2023-05-09T08:14:44.886Z,18.75
2023-05-09T08:17:12.979Z,19.13
2023-05-09T08:19:41.060Z,17.33
2023-05-09T08:22:09.140Z,14.85
2023-05-09T08:24:37.158Z,11.63
2023-05-09T08:27:05.532Z,11.68
2023-05-09T08:29:34.952Z,14.57
2023-05-09T08:32:03.082Z,12.48
2023-05-09T08:34:34.406Z,12.18
2023-05-09T08:37:02.656Z,11.43
2023-05-09T08:39:30.717Z,11.50
2023-05-09T08:42:00.372Z,10.80
2023-05-09T08:44:30.532Z,14.23
2023-05-09T08:47:01.759Z,20.13
2023-05-09T08:49:30.154Z,15.80
2023-05-09T08:51:58.964Z,13.47
2023-05-09T08:54:27.247Z,16.30
2023-05-09T08:56:56.194Z,12.18
2023-05-09T08:59:24.920Z,8.88
2023-05-09T09:01:54.899Z,14.18
2023-05-09T09:04:24.403Z,16.45
2023-05-09T09:06:54.916Z,14.77
2023-05-09T09:09:24.242Z,14.98
2023-05-09T09:11:53.290Z,9.73
2023-05-09T09:14:25.972Z,12.45
2023-05-09T09:16:56.827Z,11.50
2023-05-09T09:19:31.846Z,11.15
2023-05-09T09:22:01.121Z,10.10
2023-05-09T09:24:29.212Z,10.15
2023-05-09T09:26:57.402Z,10.20
2023-05-09T09:29:28.695Z,11.70
2023-05-09T09:31:56.867Z,9.05
2023-05-09T09:34:26.785Z,9.10
2023-05-09T09:36:54.850Z,10.20
2023-05-09T09:39:23.097Z,21.05
2023-05-09T09:41:51.362Z,13.05
2023-05-09T09:44:20.832Z,10.30
2023-05-09T09:46:50.423Z,14.57
2023-05-09T09:49:20.292Z,10.80
2023-05-09T09:51:52.936Z,10.27
2023-05-09T09:54:21.499Z,8.85
2023-05-09T09:56:51.764Z,14.65
2023-05-09T09:59:20.832Z,11.30
2023-05-09T10:02:00.180Z,8.32
2023-05-09T10:04:30.394Z,17.38
2023-05-09T10:07:01.246Z,8.53
2023-05-09T10:09:30.036Z,10.25
2023-05-09T10:12:01.080Z,7.60
2023-05-09T10:14:30.507Z,8.87
2023-05-09T10:16:59.578Z,7.57
2023-05-09T10:19:30.433Z,7.90
2023-05-09T10:22:04.238Z,9.90
2023-05-09T10:24:36.770Z,9.17
2023-05-09T10:27:07.678Z,9.18
2023-05-09T10:29:37.397Z,8.23
2023-05-09T10:32:13.755Z,7.93
2023-05-09T10:34:45.547Z,5.63
2023-05-09T10:37:16.675Z,6.30
2023-05-09T10:39:45.577Z,7.23
2023-05-09T10:42:14.494Z,5.78
2023-05-09T10:44:43.023Z,6.35
2023-05-09T10:47:13.075Z,6.90
2023-05-09T10:49:41.805Z,7.60
2023-05-09T10:52:09.978Z,4.88
2023-05-09T10:54:39.543Z,7.03
2023-05-09T10:57:10.658Z,4.15
2023-05-09T10:59:41.178Z,5.43
2023-05-09T11:02:14.103Z,8.45
2023-05-09T11:04:44.043Z,6.35
2023-05-09T11:07:25.463Z,4.50
2023-05-09T11:10:09.129Z,4.30
2023-05-09T11:12:57.538Z,4.60
2023-05-09T11:15:27.517Z,4.75
2023-05-09T11:18:08.077Z,5.38
2023-05-09T11:20:37.270Z,6.88
2023-05-09T11:23:07.008Z,6.65
2023-05-09T11:25:36.430Z,6.77
2023-05-09T11:28:04.470Z,7.70
2023-05-09T11:30:41.671Z,4.85
2023-05-09T11:33:23.309Z,5.00
2023-05-09T11:36:19.897Z,5.10
2023-05-09T11:38:48.496Z,5.82
2023-05-09T11:41:18.079Z,4.82
2023-05-09T11:43:46.379Z,3.25
2023-05-09T11:46:14.553Z,5.22
2023-05-09T11:48:42.953Z,5.80
2023-05-09T11:51:18.747Z,4.93
2023-05-09T11:53:50.467Z,4.90
2023-05-09T11:56:19.956Z,5.32
2023-05-09T11:58:51.255Z,6.22
2023-05-09T12:01:20.592Z,5.97
2023-05-09T12:03:49.305Z,4.68
2023-05-09T12:06:18.288Z,4.47
2023-05-09T12:08:47.337Z,4.97
2023-05-09T12:11:16.099Z,4.13
2023-05-09T12:13:50.459Z,4.07
2023-05-09T12:16:19.866Z,3.40
2023-05-09T12:18:49.681Z,10.02
2023-05-09T12:21:18.526Z,8.40
2023-05-09T12:23:50.636Z,10.20
2023-05-09T12:26:19.647Z,6.70
2023-05-09T12:28:50.027Z,6.50
2023-05-09T12:31:18.795Z,3.70
2023-05-09T12:33:47.189Z,5.03
2023-05-09T12:36:15.988Z,4.10
2023-05-09T12:38:54.151Z,5.00
2023-05-09T12:41:37.111Z,3.22
2023-05-09T12:44:11.219Z,7.87
2023-05-09T12:46:39.302Z,7.60
2023-05-09T12:49:07.537Z,6.75
2023-05-09T12:51:35.671Z,4.60
2023-05-09T12:54:05.911Z,8.27
2023-05-09T12:56:36.330Z,6.80
2023-05-09T12:59:04.450Z,4.93
2023-05-09T13:01:33.976Z,7.60
2023-05-09T13:04:04.018Z,7.22
2023-05-09T13:06:32.335Z,6.40
2023-05-09T13:09:02.214Z,7.30
2023-05-09T13:11:30.882Z,4.78
2023-05-09T13:13:59.364Z,7.32
2023-05-09T13:16:27.667Z,5.72
2023-05-09T13:18:57.215Z,5.13
2023-05-09T13:21:25.419Z,7.20
2023-05-09T13:23:53.733Z,6.68
2023-05-09T13:26:22.364Z,6.47
2023-05-09T13:28:50.497Z,9.88
2023-05-09T13:31:20.078Z,7.88
2023-05-09T13:33:50.034Z,5.28
2023-05-09T13:36:21.284Z,5.53
2023-05-09T13:38:49.519Z,4.63
2023-05-09T13:41:20.932Z,4.72
2023-05-09T13:43:48.998Z,6.70
2023-05-09T13:46:17.223Z,5.28
2023-05-09T13:48:47.565Z,7.82
2023-05-09T13:51:15.746Z,6.67
2023-05-09T13:53:45.457Z,7.10
2023-05-09T13:56:13.877Z,6.15
2023-05-09T13:58:41.987Z,4.63
2023-05-09T14:01:10.051Z,8.30
2023-05-09T14:03:38.534Z,7.07
2023-05-09T14:06:08.704Z,4.70
2023-05-09T14:08:36.810Z,6.70
2023-05-09T14:11:07.526Z,7.10
2023-05-09T14:13:35.641Z,6.80
2023-05-09T14:16:04.925Z,7.50
2023-05-09T14:18:33.597Z,5.63
2023-05-09T14:21:01.790Z,4.50
2023-05-09T14:23:29.931Z,6.55
2023-05-09T14:25:58.402Z,5.82
2023-05-09T14:28:28.096Z,6.72
2023-05-09T14:30:57.298Z,6.75
2023-05-09T14:33:26.495Z,8.32
2023-05-09T14:35:54.536Z,7.45
2023-05-09T14:38:22.528Z,5.32
2023-05-09T14:40:50.537Z,7.47
2023-05-09T14:43:18.758Z,6.18
2023-05-09T14:45:48.616Z,6.93
2023-05-09T14:48:17.353Z,6.22
2023-05-09T14:50:45.522Z,6.82
2023-05-09T14:53:14.060Z,10.93
2023-05-09T14:55:42.112Z,7.50
2023-05-09T14:58:10.246Z,5.30
2023-05-09T15:00:38.369Z,6.30
2023-05-09T15:03:09.996Z,9.90
2023-05-09T15:05:38.496Z,8.40
2023-05-09T15:08:06.904Z,5.78
2023-05-09T15:10:35.386Z,8.60
2023-05-09T15:13:05.842Z,9.10
2023-05-09T15:15:34.224Z,8.83
2023-05-09T15:18:02.570Z,8.50
2023-05-09T15:20:32.027Z,10.50
2023-05-09T15:23:00.159Z,7.00
2023-05-09T15:25:28.636Z,7.45
2023-05-09T15:27:56.703Z,10.55
2023-05-09T15:30:24.741Z,19.30
2023-05-09T15:32:52.901Z,6.70
2023-05-09T15:35:21.191Z,7.10
2023-05-09T15:37:50.691Z,7.30
2023-05-09T15:40:18.944Z,12.25
2023-05-09T15:42:48.146Z,7.70
2023-05-09T15:45:16.716Z,7.88
2023-05-09T15:47:44.802Z,7.93
2023-05-09T15:50:13.272Z,7.70
2023-05-09T15:52:41.377Z,7.13
2023-05-09T15:55:12.911Z,8.20
2023-05-09T15:57:40.992Z,10.52
2023-05-09T16:00:10.124Z,7.60
2023-05-09T16:02:44.032Z,6.50
2023-05-09T16:05:12.941Z,6.13
2023-05-09T16:07:46.389Z,7.95
2023-05-09T16:10:16.270Z,8.02
2023-05-09T16:12:44.721Z,11.85
2023-05-09T16:15:13.216Z,10.20
2023-05-09T16:17:41.223Z,11.32
2023-05-09T16:20:13.591Z,12.25
2023-05-09T16:22:41.970Z,10.95
2023-05-09T16:25:10.388Z,14.40
2023-05-09T16:27:39.807Z,16.08
2023-05-09T16:30:09.101Z,12.48
2023-05-09T16:32:37.486Z,13.38
2023-05-09T16:35:06.419Z,12.27
2023-05-09T16:37:35.658Z,11.55
2023-05-09T16:40:04.405Z,12.80
2023-05-09T16:42:32.908Z,18.03
2023-05-09T16:45:02.283Z,16.40
2023-05-09T16:47:30.435Z,18.20
2023-05-09T16:49:58.523Z,15.77
2023-05-09T16:52:26.786Z,18.17
2023-05-09T16:54:55.254Z,13.77
2023-05-09T16:57:23.434Z,15.95
2023-05-09T16:59:51.404Z,18.70
2023-05-09T17:02:20.896Z,15.57
2023-05-09T17:04:49.138Z,14.75
2023-05-09T17:07:17.274Z,16.85
2023-05-09T17:09:45.327Z,17.40
2023-05-09T17:12:17.436Z,15.95
2023-05-09T17:14:46.203Z,17.10
2023-05-09T17:17:14.766Z,18.08
2023-05-09T17:19:44.390Z,16.23
2023-05-09T17:22:12.652Z,13.93
2023-05-09T17:24:40.672Z,16.05
2023-05-09T17:27:10.700Z,18.67
2023-05-09T17:29:39.047Z,19.35
2023-05-09T17:32:07.455Z,18.60
2023-05-09T17:34:35.649Z,14.30
2023-05-09T17:37:05.777Z,20.80
2023-05-09T17:39:33.804Z,19.85
2023-05-09T17:42:03.137Z,15.52
2023-05-09T17:44:31.304Z,17.08
2023-05-09T17:46:59.714Z,16.58
2023-05-09T17:49:28.528Z,16.52
2023-05-09T17:51:57.388Z,17.60
2023-05-09T17:54:26.869Z,15.80
2023-05-09T17:56:58.985Z,17.60
2023-05-09T17:59:27.076Z,17.33
2023-05-09T18:01:55.485Z,16.58
2023-05-09T18:04:23.501Z,19.20
2023-05-09T18:06:52.214Z,18.60
2023-05-09T18:09:20.977Z,21.80
2023-05-09T18:11:50.415Z,18.60
2023-05-09T18:14:18.625Z,20.20
2023-05-09T18:16:46.927Z,20.48
2023-05-09T18:19:15.143Z,18.95
2023-05-09T18:21:43.157Z,21.92
2023-05-09T18:24:11.326Z,20.50
2023-05-09T18:26:39.376Z,21.70
2023-05-09T18:29:09.530Z,20.67
2023-05-09T18:31:38.886Z,17.98
2023-05-09T18:34:07.086Z,19.60
2023-05-09T18:36:35.217Z,21.15
2023-05-09T18:39:03.214Z,22.08
2023-05-09T18:41:31.863Z,22.88
2023-05-09T18:44:00.135Z,20.92
2023-05-09T18:46:31.681Z,22.55
2023-05-09T18:48:59.816Z,21.88
2023-05-09T18:51:28.127Z,24.45
2023-05-09T18:53:56.670Z,23.17
2023-05-09T18:56:25.477Z,22.50
2023-05-09T18:58:53.533Z,24.03
2023-05-09T19:01:24.286Z,21.48
2023-05-09T19:03:55.187Z,19.85
2023-05-09T19:06:24.029Z,20.75
2023-05-09T19:08:53.753Z,23.10
2023-05-09T19:11:22.343Z,23.65
2023-05-09T19:13:52.737Z,22.30
2023-05-09T19:16:22.376Z,25.45
2023-05-09T19:18:50.547Z,26.05
2023-05-09T19:21:19.993Z,23.98
2023-05-09T19:23:49.248Z,24.42
2023-05-09T19:26:17.581Z,26.15
2023-05-09T19:28:46.551Z,23.88
2023-05-09T19:31:15.631Z,22.65
2023-05-09T19:33:45.401Z,24.70
2023-05-09T19:36:13.874Z,23.80
2023-05-09T19:38:43.319Z,23.63
2023-05-09T19:41:12.650Z,26.33
2023-05-09T19:43:40.851Z,26.30
2023-05-09T19:46:09.122Z,24.17
2023-05-09T19:48:37.173Z,24.13
2023-05-09T19:51:05.653Z,27.60
2023-05-09T19:53:33.661Z,30.42
2023-05-09T19:56:03.489Z,23.92
2023-05-09T19:58:31.519Z,25.40
2023-05-09T20:00:59.572Z,25.80
2023-05-09T20:03:27.694Z,28.70
2023-05-09T20:05:55.819Z,24.55
2023-05-09T20:08:25.405Z,25.58
2023-05-09T20:10:53.884Z,25.30
2023-05-09T20:13:23.397Z,25.58
2023-05-09T20:15:52.149Z,23.23
2023-05-09T20:18:20.253Z,24.50
2023-05-09T20:20:48.401Z,23.57
2023-05-09T20:23:16.416Z,23.10
2023-05-09T20:25:44.589Z,23.52
2023-05-09T20:28:16.185Z,22.30
2023-05-09T20:30:46.243Z,23.00
2023-05-09T20:33:14.340Z,20.88
2023-05-09T20:35:43.852Z,20.10
2023-05-09T20:38:12.038Z,17.80
2023-05-09T20:40:40.389Z,10.43
2023-05-09T20:43:08.673Z,10.27
2023-05-09T20:45:37.379Z,9.57
2023-05-09T20:48:07.929Z,9.18
2023-05-09T20:50:36.190Z,9.55
2023-05-09T20:53:04.279Z,11.07
2023-05-09T20:55:32.713Z,8.20
2023-05-09T20:58:00.776Z,8.00
2023-05-09T21:00:29.086Z,9.90
2023-05-09T21:02:58.756Z,9.75
2023-05-09T21:05:28.445Z,11.27
2023-05-09T21:07:56.629Z,13.82
2023-05-09T21:10:24.623Z,10.10
2023-05-09T21:12:52.725Z,9.82
2023-05-09T21:15:20.792Z,9.98
2023-05-09T21:17:48.931Z,11.23
2023-05-09T21:20:17.523Z,10.93
2023-05-09T21:22:48.298Z,11.40
2023-05-09T21:25:17.460Z,10.63
2023-05-09T21:27:46.282Z,8.30
2023-05-09T21:30:15.068Z,10.37
2023-05-09T21:32:43.305Z,9.45
2023-05-09T21:35:13.125Z,7.10
2023-05-09T21:37:41.291Z,6.93
2023-05-09T21:40:15.510Z,8.18
2023-05-09T21:42:44.190Z,7.78
2023-05-09T21:45:12.459Z,7.95
2023-05-09T21:47:40.770Z,9.82
2023-05-09T21:50:09.500Z,8.95
2023-05-09T21:52:37.547Z,7.45
2023-05-09T21:55:06.063Z,7.82
2023-05-09T21:57:35.585Z,8.73
2023-05-09T22:00:05.647Z,7.25
2023-05-09T22:02:42.804Z,7.18
2023-05-09T22:05:11.852Z,9.20
2023-05-09T22:07:40.316Z,7.50
2023-05-09T22:10:09.348Z,10.60
2023-05-09T22:12:38.963Z,6.78
2023-05-09T22:15:08.873Z,7.00
2023-05-09T22:17:37.230Z,7.45
2023-05-09T22:20:06.197Z,7.78
2023-05-09T22:22:34.290Z,8.60
2023-05-09T22:25:02.343Z,9.20
2023-05-09T22:27:30.494Z,7.32
2023-05-09T22:29:59.921Z,7.32
2023-05-09T22:32:28.452Z,8.70
2023-05-09T22:34:57.189Z,11.57
2023-05-09T22:37:25.591Z,8.77
2023-05-09T22:39:53.653Z,9.83
2023-05-09T22:42:21.710Z,19.15
2023-05-09T22:44:50.848Z,18.50
2023-05-09T22:47:20.350Z,17.20
2023-05-09T22:49:48.417Z,17.73
2023-05-09T22:52:17.082Z,16.77
2023-05-09T22:54:45.379Z,17.10
2023-05-09T22:57:13.946Z,20.80
2023-05-09T22:59:41.951Z,18.00
2023-05-09T23:02:10.233Z,14.97
2023-05-09T23:04:39.676Z,9.60
2023-05-09T23:07:07.779Z,10.90
2023-05-09T23:09:35.837Z,12.35
2023-05-09T23:12:03.920Z,12.63
2023-05-09T23:14:32.487Z,15.90
2023-05-09T23:17:00.538Z,15.27
2023-05-09T23:19:28.762Z,10.98
2023-05-09T23:21:58.594Z,11.18
2023-05-09T23:24:26.713Z,10.32
2023-05-09T23:26:55.126Z,7.80
2023-05-09T23:29:23.213Z,7.60
2023-05-09T23:31:51.315Z,4.80
2023-05-09T23:34:19.431Z,5.93
2023-05-09T23:36:47.615Z,6.93
2023-05-09T23:39:17.079Z,5.40
2023-05-09T23:41:45.160Z,5.47
2023-05-09T23:44:13.717Z,5.60
2023-05-09T23:46:41.836Z,4.47
2023-05-09T23:49:10.189Z,5.37
2023-05-09T23:51:38.196Z,4.60
2023-05-09T23:54:06.495Z,5.20
2023-05-09T23:56:35.906Z,4.70
2023-05-09T23:59:04.035Z,4.78
